sensor_id;sensor_type;location;lat;lon;timestamp;temperature;humidity
68719;DHT22;55696;52.138;5.444;2022-12-07T00:01:33;9.40;73.80
68719;DHT22;55696;52.138;5.444;2022-12-07T00:04:02;9.30;74.60
68719;DHT22;55696;52.138;5.444;2022-12-07T00:06:34;9.50;74.00
68719;DHT22;55696;52.138;5.444;2022-12-07T00:09:02;9.20;73.70
68719;DHT22;55696;52.138;5.444;2022-12-07T00:11:29;9.20;73.60
68719;DHT22;55696;52.138;5.444;2022-12-07T00:13:58;9.20;73.10
68719;DHT22;55696;52.138;5.444;2022-12-07T00:16:27;9.20;74.40
68719;DHT22;55696;52.138;5.444;2022-12-07T00:18:55;9.10;74.30
68719;DHT22;55696;52.138;5.444;2022-12-07T00:21:30;9.10;73.50
68719;DHT22;55696;52.138;5.444;2022-12-07T00:23:58;9.10;74.20
68719;DHT22;55696;52.138;5.444;2022-12-07T00:26:28;9.00;74.00
68719;DHT22;55696;52.138;5.444;2022-12-07T00:29:02;9.00;75.00
68719;DHT22;55696;52.138;5.444;2022-12-07T00:31:33;9.00;75.10
68719;DHT22;55696;52.138;5.444;2022-12-07T00:34:01;9.00;75.40
68719;DHT22;55696;52.138;5.444;2022-12-07T00:36:28;9.00;73.80
68719;DHT22;55696;52.138;5.444;2022-12-07T00:38:57;8.90;73.90
68719;DHT22;55696;52.138;5.444;2022-12-07T00:41:28;9.00;75.30
68719;DHT22;55696;52.138;5.444;2022-12-07T00:43:55;9.00;74.70
68719;DHT22;55696;52.138;5.444;2022-12-07T00:46:23;9.00;73.80
68719;DHT22;55696;52.138;5.444;2022-12-07T00:48:51;9.00;74.60
68719;DHT22;55696;52.138;5.444;2022-12-07T00:51:21;9.00;74.60
68719;DHT22;55696;52.138;5.444;2022-12-07T00:53:48;9.00;74.90
68719;DHT22;55696;52.138;5.444;2022-12-07T00:56:18;9.00;73.70
68719;DHT22;55696;52.138;5.444;2022-12-07T00:58:53;8.90;74.80
68719;DHT22;55696;52.138;5.444;2022-12-07T01:01:20;8.90;75.50
68719;DHT22;55696;52.138;5.444;2022-12-07T01:03:47;8.80;74.00
68719;DHT22;55696;52.138;5.444;2022-12-07T01:06:16;8.80;74.80
68719;DHT22;55696;52.138;5.444;2022-12-07T01:08:43;8.70;75.10
68719;DHT22;55696;52.138;5.444;2022-12-07T01:11:14;8.70;74.70
68719;DHT22;55696;52.138;5.444;2022-12-07T01:13:41;8.70;75.60
68719;DHT22;55696;52.138;5.444;2022-12-07T01:16:10;8.80;74.40
68719;DHT22;55696;52.138;5.444;2022-12-07T01:18:38;8.80;75.30
68719;DHT22;55696;52.138;5.444;2022-12-07T01:21:07;8.80;74.10
68719;DHT22;55696;52.138;5.444;2022-12-07T01:23:35;8.80;75.10
68719;DHT22;55696;52.138;5.444;2022-12-07T01:26:04;8.90;74.30
68719;DHT22;55696;52.138;5.444;2022-12-07T01:28:31;9.00;74.80
68719;DHT22;55696;52.138;5.444;2022-12-07T01:31:09;8.90;73.70
68719;DHT22;55696;52.138;5.444;2022-12-07T01:33:39;8.90;74.20
68719;DHT22;55696;52.138;5.444;2022-12-07T01:36:17;8.90;74.40
68719;DHT22;55696;52.138;5.444;2022-12-07T01:38:45;8.80;74.60
68719;DHT22;55696;52.138;5.444;2022-12-07T01:41:13;8.70;74.00
68719;DHT22;55696;52.138;5.444;2022-12-07T01:44:32;8.70;74.00
68719;DHT22;55696;52.138;5.444;2022-12-07T01:47:10;8.60;75.40
68719;DHT22;55696;52.138;5.444;2022-12-07T01:49:37;8.60;75.60
68719;DHT22;55696;52.138;5.444;2022-12-07T01:52:26;8.50;73.30
68719;DHT22;55696;52.138;5.444;2022-12-07T01:55:02;8.60;75.30
68719;DHT22;55696;52.138;5.444;2022-12-07T01:57:32;8.40;75.30
68719;DHT22;55696;52.138;5.444;2022-12-07T02:00:00;8.50;75.10
68719;DHT22;55696;52.138;5.444;2022-12-07T02:02:48;8.40;74.90
68719;DHT22;55696;52.138;5.444;2022-12-07T02:05:16;8.40;75.20
68719;DHT22;55696;52.138;5.444;2022-12-07T02:07:44;8.40;75.00
68719;DHT22;55696;52.138;5.444;2022-12-07T02:10:18;8.50;75.00
68719;DHT22;55696;52.138;5.444;2022-12-07T02:12:48;8.50;75.90
68719;DHT22;55696;52.138;5.444;2022-12-07T02:15:20;8.50;75.30
68719;DHT22;55696;52.138;5.444;2022-12-07T02:20:30;8.50;75.50
68719;DHT22;55696;52.138;5.444;2022-12-07T02:28:58;8.50;75.30
68719;DHT22;55696;52.138;5.444;2022-12-07T02:31:28;8.50;75.50
68719;DHT22;55696;52.138;5.444;2022-12-07T02:34:31;8.40;74.70
68719;DHT22;55696;52.138;5.444;2022-12-07T02:37:09;8.50;75.60
68719;DHT22;55696;52.138;5.444;2022-12-07T02:39:44;8.60;75.60
68719;DHT22;55696;52.138;5.444;2022-12-07T02:42:17;8.50;75.60
68719;DHT22;55696;52.138;5.444;2022-12-07T02:44:45;8.60;75.50
68719;DHT22;55696;52.138;5.444;2022-12-07T02:47:15;8.60;74.60
68719;DHT22;55696;52.138;5.444;2022-12-07T02:49:43;8.70;75.00
68719;DHT22;55696;52.138;5.444;2022-12-07T02:52:10;8.70;73.60
68719;DHT22;55696;52.138;5.444;2022-12-07T02:54:37;8.70;73.40
68719;DHT22;55696;52.138;5.444;2022-12-07T03:00:09;8.80;74.40
68719;DHT22;55696;52.138;5.444;2022-12-07T03:02:58;8.90;74.60
68719;DHT22;55696;52.138;5.444;2022-12-07T03:08:26;8.80;72.30
68719;DHT22;55696;52.138;5.444;2022-12-07T03:11:09;8.80;74.70
68719;DHT22;55696;52.138;5.444;2022-12-07T03:13:50;8.80;74.10
68719;DHT22;55696;52.138;5.444;2022-12-07T03:16:25;8.80;74.80
68719;DHT22;55696;52.138;5.444;2022-12-07T03:19:03;8.80;74.80
68719;DHT22;55696;52.138;5.444;2022-12-07T03:21:38;8.90;74.60
68719;DHT22;55696;52.138;5.444;2022-12-07T03:24:10;8.90;74.40
68719;DHT22;55696;52.138;5.444;2022-12-07T03:26:42;8.80;74.60
68719;DHT22;55696;52.138;5.444;2022-12-07T03:29:24;8.80;74.80
68719;DHT22;55696;52.138;5.444;2022-12-07T03:31:57;8.70;75.30
68719;DHT22;55696;52.138;5.444;2022-12-07T03:34:37;8.60;74.90
68719;DHT22;55696;52.138;5.444;2022-12-07T03:37:25;8.60;74.50
68719;DHT22;55696;52.138;5.444;2022-12-07T03:42:34;8.60;75.40
68719;DHT22;55696;52.138;5.444;2022-12-07T03:45:02;8.60;73.80
68719;DHT22;55696;52.138;5.444;2022-12-07T03:50:29;8.50;75.50
68719;DHT22;55696;52.138;5.444;2022-12-07T03:53:19;8.50;75.70
68719;DHT22;55696;52.138;5.444;2022-12-07T03:55:48;8.60;76.10
68719;DHT22;55696;52.138;5.444;2022-12-07T03:58:19;8.60;74.80
68719;DHT22;55696;52.138;5.444;2022-12-07T04:00:47;8.70;74.90
68719;DHT22;55696;52.138;5.444;2022-12-07T04:03:15;8.70;73.50
68719;DHT22;55696;52.138;5.444;2022-12-07T04:05:42;8.70;73.30
68719;DHT22;55696;52.138;5.444;2022-12-07T04:08:09;8.70;74.10
68719;DHT22;55696;52.138;5.444;2022-12-07T04:10:36;8.70;73.30
68719;DHT22;55696;52.138;5.444;2022-12-07T04:13:03;8.70;73.80
68719;DHT22;55696;52.138;5.444;2022-12-07T04:15:30;8.80;73.50
68719;DHT22;55696;52.138;5.444;2022-12-07T04:17:57;8.80;73.50
68719;DHT22;55696;52.138;5.444;2022-12-07T04:20:23;8.80;73.30
68719;DHT22;55696;52.138;5.444;2022-12-07T04:22:50;8.80;73.20
68719;DHT22;55696;52.138;5.444;2022-12-07T04:25:17;8.90;73.10
68719;DHT22;55696;52.138;5.444;2022-12-07T04:27:44;8.90;73.00
68719;DHT22;55696;52.138;5.444;2022-12-07T04:30:11;8.80;73.10
68719;DHT22;55696;52.138;5.444;2022-12-07T04:32:37;8.80;73.30
68719;DHT22;55696;52.138;5.444;2022-12-07T04:35:05;8.80;73.10
68719;DHT22;55696;52.138;5.444;2022-12-07T04:37:32;8.80;73.40
68719;DHT22;55696;52.138;5.444;2022-12-07T04:39:59;8.80;73.70
68719;DHT22;55696;52.138;5.444;2022-12-07T04:42:28;8.80;73.30
68719;DHT22;55696;52.138;5.444;2022-12-07T04:44:54;8.80;74.30
68719;DHT22;55696;52.138;5.444;2022-12-07T04:47:21;8.80;73.10
68719;DHT22;55696;52.138;5.444;2022-12-07T04:49:48;8.70;73.10
68719;DHT22;55696;52.138;5.444;2022-12-07T04:52:15;8.80;73.00
68719;DHT22;55696;52.138;5.444;2022-12-07T04:54:41;8.80;73.00
68719;DHT22;55696;52.138;5.444;2022-12-07T04:57:08;8.80;73.00
68719;DHT22;55696;52.138;5.444;2022-12-07T04:59:35;8.80;72.90
68719;DHT22;55696;52.138;5.444;2022-12-07T05:02:07;8.70;72.90
68719;DHT22;55696;52.138;5.444;2022-12-07T05:04:34;8.80;72.80
68719;DHT22;55696;52.138;5.444;2022-12-07T05:07:01;8.70;72.90
68719;DHT22;55696;52.138;5.444;2022-12-07T05:09:28;8.70;72.70
68719;DHT22;55696;52.138;5.444;2022-12-07T05:11:54;8.70;72.80
68719;DHT22;55696;52.138;5.444;2022-12-07T05:14:21;8.60;72.90
68719;DHT22;55696;52.138;5.444;2022-12-07T05:16:49;8.60;72.90
68719;DHT22;55696;52.138;5.444;2022-12-07T05:19:18;8.60;74.10
68719;DHT22;55696;52.138;5.444;2022-12-07T05:21:45;8.50;73.90
68719;DHT22;55696;52.138;5.444;2022-12-07T05:24:14;8.50;73.00
68719;DHT22;55696;52.138;5.444;2022-12-07T05:26:41;8.50;74.30
68719;DHT22;55696;52.138;5.444;2022-12-07T05:29:14;8.40;73.30
68719;DHT22;55696;52.138;5.444;2022-12-07T05:31:41;8.40;74.10
68719;DHT22;55696;52.138;5.444;2022-12-07T05:34:08;8.40;72.90
68719;DHT22;55696;52.138;5.444;2022-12-07T05:36:35;8.40;73.40
68719;DHT22;55696;52.138;5.444;2022-12-07T05:39:02;8.40;74.20
68719;DHT22;55696;52.138;5.444;2022-12-07T05:41:29;8.40;73.00
68719;DHT22;55696;52.138;5.444;2022-12-07T05:44:14;8.40;72.60
68719;DHT22;55696;52.138;5.444;2022-12-07T05:46:41;8.30;72.90
68719;DHT22;55696;52.138;5.444;2022-12-07T05:49:08;8.40;73.00
68719;DHT22;55696;52.138;5.444;2022-12-07T05:51:35;8.30;72.80
68719;DHT22;55696;52.138;5.444;2022-12-07T05:54:02;8.30;72.70
68719;DHT22;55696;52.138;5.444;2022-12-07T05:56:29;8.30;72.80
68719;DHT22;55696;52.138;5.444;2022-12-07T05:58:55;8.20;72.70
68719;DHT22;55696;52.138;5.444;2022-12-07T06:01:41;8.20;72.50
68719;DHT22;55696;52.138;5.444;2022-12-07T06:04:08;8.20;72.80
68719;DHT22;55696;52.138;5.444;2022-12-07T06:06:35;8.30;73.00
68719;DHT22;55696;52.138;5.444;2022-12-07T06:09:02;8.40;72.80
68719;DHT22;55696;52.138;5.444;2022-12-07T06:11:29;8.40;73.10
68719;DHT22;55696;52.138;5.444;2022-12-07T06:14:14;8.30;71.80
68719;DHT22;55696;52.138;5.444;2022-12-07T06:16:41;8.40;72.60
68719;DHT22;55696;52.138;5.444;2022-12-07T06:19:08;8.40;72.50
68719;DHT22;55696;52.138;5.444;2022-12-07T06:21:35;8.40;72.70
68719;DHT22;55696;52.138;5.444;2022-12-07T06:24:02;8.40;72.60
68719;DHT22;55696;52.138;5.444;2022-12-07T06:26:29;8.50;72.70
68719;DHT22;55696;52.138;5.444;2022-12-07T06:28:56;8.40;72.50
68719;DHT22;55696;52.138;5.444;2022-12-07T06:31:23;8.50;72.60
68719;DHT22;55696;52.138;5.444;2022-12-07T06:33:49;8.40;72.80
68719;DHT22;55696;52.138;5.444;2022-12-07T06:36:16;9.30;72.50
68719;DHT22;55696;52.138;5.444;2022-12-07T06:38:49;8.50;72.30
68719;DHT22;55696;52.138;5.444;2022-12-07T06:41:16;8.50;73.10
68719;DHT22;55696;52.138;5.444;2022-12-07T06:43:43;8.50;72.10
68719;DHT22;55696;52.138;5.444;2022-12-07T06:46:09;8.60;72.00
68719;DHT22;55696;52.138;5.444;2022-12-07T06:48:36;8.60;72.10
68719;DHT22;55696;52.138;5.444;2022-12-07T06:51:03;8.60;72.10
68719;DHT22;55696;52.138;5.444;2022-12-07T06:53:30;8.60;72.30
68719;DHT22;55696;52.138;5.444;2022-12-07T06:55:57;8.60;72.20
68719;DHT22;55696;52.138;5.444;2022-12-07T06:58:24;8.60;72.00
68719;DHT22;55696;52.138;5.444;2022-12-07T07:00:51;8.60;72.10
68719;DHT22;55696;52.138;5.444;2022-12-07T07:03:18;8.50;72.10
68719;DHT22;55696;52.138;5.444;2022-12-07T07:05:45;8.50;72.20
68719;DHT22;55696;52.138;5.444;2022-12-07T07:08:12;8.40;72.40
68719;DHT22;55696;52.138;5.444;2022-12-07T07:10:48;8.40;73.10
68719;DHT22;55696;52.138;5.444;2022-12-07T07:13:15;8.40;72.30
68719;DHT22;55696;52.138;5.444;2022-12-07T07:15:42;8.20;72.10
68719;DHT22;55696;52.138;5.444;2022-12-07T07:18:09;8.30;72.70
68719;DHT22;55696;52.138;5.444;2022-12-07T07:20:36;8.20;72.60
68719;DHT22;55696;52.138;5.444;2022-12-07T07:23:03;8.20;73.10
68719;DHT22;55696;52.138;5.444;2022-12-07T07:25:30;8.30;72.60
68719;DHT22;55696;52.138;5.444;2022-12-07T07:27:56;8.20;72.70
68719;DHT22;55696;52.138;5.444;2022-12-07T07:30:24;8.10;72.40
68719;DHT22;55696;52.138;5.444;2022-12-07T07:32:51;8.20;72.80
68719;DHT22;55696;52.138;5.444;2022-12-07T07:35:17;8.20;72.80
68719;DHT22;55696;52.138;5.444;2022-12-07T07:37:44;8.10;72.70
68719;DHT22;55696;52.138;5.444;2022-12-07T07:40:11;8.10;72.80
68719;DHT22;55696;52.138;5.444;2022-12-07T07:42:38;8.00;73.00
68719;DHT22;55696;52.138;5.444;2022-12-07T07:45:06;7.90;72.70
68719;DHT22;55696;52.138;5.444;2022-12-07T07:47:32;8.00;73.20
68719;DHT22;55696;52.138;5.444;2022-12-07T07:49:59;7.90;72.90
68719;DHT22;55696;52.138;5.444;2022-12-07T07:52:26;7.90;72.80
68719;DHT22;55696;52.138;5.444;2022-12-07T07:54:53;7.90;73.00
68719;DHT22;55696;52.138;5.444;2022-12-07T07:57:20;7.90;72.80
68719;DHT22;55696;52.138;5.444;2022-12-07T07:59:47;8.00;72.90
68719;DHT22;55696;52.138;5.444;2022-12-07T08:02:16;7.90;72.90
68719;DHT22;55696;52.138;5.444;2022-12-07T08:04:43;7.90;74.20
68719;DHT22;55696;52.138;5.444;2022-12-07T08:07:11;8.00;73.30
68719;DHT22;55696;52.138;5.444;2022-12-07T08:09:38;8.00;73.40
68719;DHT22;55696;52.138;5.444;2022-12-07T08:12:05;8.10;74.10
68719;DHT22;55696;52.138;5.444;2022-12-07T08:14:32;8.20;73.00
68719;DHT22;55696;52.138;5.444;2022-12-07T08:16:59;8.20;73.30
68719;DHT22;55696;52.138;5.444;2022-12-07T08:19:26;8.20;72.70
68719;DHT22;55696;52.138;5.444;2022-12-07T08:21:53;8.10;72.50
68719;DHT22;55696;52.138;5.444;2022-12-07T08:24:22;8.20;72.70
68719;DHT22;55696;52.138;5.444;2022-12-07T08:26:49;8.10;73.00
68719;DHT22;55696;52.138;5.444;2022-12-07T08:29:16;8.30;72.80
68719;DHT22;55696;52.138;5.444;2022-12-07T08:31:43;8.30;73.00
68719;DHT22;55696;52.138;5.444;2022-12-07T08:34:11;8.40;72.50
68719;DHT22;55696;52.138;5.444;2022-12-07T08:36:38;8.50;72.70
68719;DHT22;55696;52.138;5.444;2022-12-07T08:39:05;8.60;72.30
68719;DHT22;55696;52.138;5.444;2022-12-07T08:41:52;8.60;72.60
68719;DHT22;55696;52.138;5.444;2022-12-07T08:44:19;8.70;71.80
68719;DHT22;55696;52.138;5.444;2022-12-07T08:46:58;9.40;72.00
68719;DHT22;55696;52.138;5.444;2022-12-07T08:49:31;8.80;73.40
68719;DHT22;55696;52.138;5.444;2022-12-07T08:52:00;8.90;73.40
68719;DHT22;55696;52.138;5.444;2022-12-07T08:54:28;9.00;71.40
68719;DHT22;55696;52.138;5.444;2022-12-07T08:56:55;9.10;71.90
68719;DHT22;55696;52.138;5.444;2022-12-07T08:59:26;9.10;71.20
68719;DHT22;55696;52.138;5.444;2022-12-07T09:01:53;9.10;71.90
68719;DHT22;55696;52.138;5.444;2022-12-07T09:04:20;9.10;70.80
68719;DHT22;55696;52.138;5.444;2022-12-07T09:06:48;9.10;70.80
68719;DHT22;55696;52.138;5.444;2022-12-07T09:09:15;9.10;70.90
68719;DHT22;55696;52.138;5.444;2022-12-07T09:11:42;9.00;70.60
68719;DHT22;55696;52.138;5.444;2022-12-07T09:14:12;9.10;70.90
68719;DHT22;55696;52.138;5.444;2022-12-07T09:16:39;9.00;70.80
68719;DHT22;55696;52.138;5.444;2022-12-07T09:19:07;9.00;71.10
68719;DHT22;55696;52.138;5.444;2022-12-07T09:21:34;9.10;72.20
68719;DHT22;55696;52.138;5.444;2022-12-07T09:24:01;9.00;71.00
68719;DHT22;55696;52.138;5.444;2022-12-07T09:26:28;9.10;71.10
68719;DHT22;55696;52.138;5.444;2022-12-07T09:28:55;9.20;70.90
68719;DHT22;55696;52.138;5.444;2022-12-07T09:31:21;9.20;70.90
68719;DHT22;55696;52.138;5.444;2022-12-07T09:33:59;9.30;70.80
68719;DHT22;55696;52.138;5.444;2022-12-07T09:36:27;9.30;72.70
68719;DHT22;55696;52.138;5.444;2022-12-07T09:38:55;9.40;70.90
68719;DHT22;55696;52.138;5.444;2022-12-07T09:41:23;9.40;70.30
68719;DHT22;55696;52.138;5.444;2022-12-07T09:43:51;9.50;71.20
68719;DHT22;55696;52.138;5.444;2022-12-07T09:46:20;9.70;70.80
68719;DHT22;55696;52.138;5.444;2022-12-07T09:48:48;9.50;71.30
68719;DHT22;55696;52.138;5.444;2022-12-07T09:51:21;9.90;71.00
68719;DHT22;55696;52.138;5.444;2022-12-07T09:53:56;9.50;70.50
68719;DHT22;55696;52.138;5.444;2022-12-07T09:56:23;9.50;71.50
68719;DHT22;55696;52.138;5.444;2022-12-07T09:59:01;9.50;70.00
68719;DHT22;55696;52.138;5.444;2022-12-07T10:01:30;9.50;71.20
68719;DHT22;55696;52.138;5.444;2022-12-07T10:04:23;9.50;71.10
68719;DHT22;55696;52.138;5.444;2022-12-07T10:06:49;9.60;71.30
68719;DHT22;55696;52.138;5.444;2022-12-07T10:09:21;9.50;69.70
68719;DHT22;55696;52.138;5.444;2022-12-07T10:12:03;9.50;71.50
68719;DHT22;55696;52.138;5.444;2022-12-07T10:14:32;9.40;71.60
68719;DHT22;55696;52.138;5.444;2022-12-07T10:17:31;9.40;70.90
68719;DHT22;55696;52.138;5.444;2022-12-07T10:20:14;9.40;72.00
68719;DHT22;55696;52.138;5.444;2022-12-07T10:23:03;9.30;72.00
68719;DHT22;55696;52.138;5.444;2022-12-07T10:25:36;9.70;71.90
68719;DHT22;55696;52.138;5.444;2022-12-07T10:28:13;10.10;71.00
68719;DHT22;55696;52.138;5.444;2022-12-07T10:33:36;10.20;70.30
68719;DHT22;55696;52.138;5.444;2022-12-07T10:36:19;10.20;70.30
68719;DHT22;55696;52.138;5.444;2022-12-07T10:38:52;10.30;69.90
68719;DHT22;55696;52.138;5.444;2022-12-07T10:41:19;10.20;68.90
68719;DHT22;55696;52.138;5.444;2022-12-07T10:43:48;10.00;68.00
68719;DHT22;55696;52.138;5.444;2022-12-07T10:49:25;10.20;70.20
68719;DHT22;55696;52.138;5.444;2022-12-07T10:52:35;10.30;70.00
68719;DHT22;55696;52.138;5.444;2022-12-07T11:09:04;10.50;68.50
68719;DHT22;55696;52.138;5.444;2022-12-07T11:11:47;10.70;68.70
68719;DHT22;55696;52.138;5.444;2022-12-07T11:14:56;10.70;68.60
68719;DHT22;55696;52.138;5.444;2022-12-07T11:26:02;10.80;67.10
68719;DHT22;55696;52.138;5.444;2022-12-07T11:31:33;10.60;67.90
68719;DHT22;55696;52.138;5.444;2022-12-07T11:34:39;10.40;66.50
68719;DHT22;55696;52.138;5.444;2022-12-07T11:37:13;10.30;68.60
68719;DHT22;55696;52.138;5.444;2022-12-07T11:39:52;10.20;68.80
68719;DHT22;55696;52.138;5.444;2022-12-07T11:42:30;10.10;69.80
68719;DHT22;55696;52.138;5.444;2022-12-07T11:45:20;10.20;69.80
68719;DHT22;55696;52.138;5.444;2022-12-07T11:48:03;10.40;70.00
68719;DHT22;55696;52.138;5.444;2022-12-07T11:50:37;10.40;69.00
68719;DHT22;55696;52.138;5.444;2022-12-07T12:06:37;10.70;69.00
68719;DHT22;55696;52.138;5.444;2022-12-07T12:15:23;10.90;67.90
68719;DHT22;55696;52.138;5.444;2022-12-07T12:21:03;10.90;68.10
68719;DHT22;55696;52.138;5.444;2022-12-07T12:23:48;11.00;67.60
68719;DHT22;55696;52.138;5.444;2022-12-07T12:26:21;11.10;67.10
68719;DHT22;55696;52.138;5.444;2022-12-07T12:28:58;11.10;67.00
68719;DHT22;55696;52.138;5.444;2022-12-07T12:31:38;11.20;66.80
68719;DHT22;55696;52.138;5.444;2022-12-07T12:34:32;11.30;67.00
68719;DHT22;55696;52.138;5.444;2022-12-07T12:36:59;11.40;66.60
68719;DHT22;55696;52.138;5.444;2022-12-07T12:39:26;11.40;64.60
68719;DHT22;55696;52.138;5.444;2022-12-07T12:41:55;11.40;64.60
68719;DHT22;55696;52.138;5.444;2022-12-07T12:47:04;11.80;63.40
68719;DHT22;55696;52.138;5.444;2022-12-07T12:50:11;11.90;64.70
68719;DHT22;55696;52.138;5.444;2022-12-07T12:57:36;12.00;63.70
68719;DHT22;55696;52.138;5.444;2022-12-07T13:00:21;11.90;62.20
68719;DHT22;55696;52.138;5.444;2022-12-07T13:02:54;11.70;64.50
68719;DHT22;55696;52.138;5.444;2022-12-07T13:05:29;11.40;64.40
68719;DHT22;55696;52.138;5.444;2022-12-07T13:07:57;11.20;63.40
68719;DHT22;55696;52.138;5.444;2022-12-07T13:18:44;10.40;66.20
68719;DHT22;55696;52.138;5.444;2022-12-07T13:29:12;10.10;67.90
68719;DHT22;55696;52.138;5.444;2022-12-07T13:31:56;10.00;68.30
68719;DHT22;55696;52.138;5.444;2022-12-07T13:34:36;10.00;66.70
68719;DHT22;55696;52.138;5.444;2022-12-07T13:37:30;10.00;67.70
68719;DHT22;55696;52.138;5.444;2022-12-07T13:40:22;10.00;68.30
68719;DHT22;55696;52.138;5.444;2022-12-07T13:43:01;10.10;68.50
68719;DHT22;55696;52.138;5.444;2022-12-07T13:45:33;10.10;68.00
68719;DHT22;55696;52.138;5.444;2022-12-07T13:48:32;10.10;67.00
68719;DHT22;55696;52.138;5.444;2022-12-07T13:51:02;10.10;68.30
68719;DHT22;55696;52.138;5.444;2022-12-07T13:53:29;10.10;67.70
68719;DHT22;55696;52.138;5.444;2022-12-07T13:55:59;10.10;67.00
68719;DHT22;55696;52.138;5.444;2022-12-07T13:58:29;10.20;67.90
68719;DHT22;55696;52.138;5.444;2022-12-07T14:00:57;10.20;67.60
68719;DHT22;55696;52.138;5.444;2022-12-07T14:03:35;10.30;67.40
68719;DHT22;55696;52.138;5.444;2022-12-07T14:06:13;10.20;68.80
68719;DHT22;55696;52.138;5.444;2022-12-07T14:08:41;10.30;67.80
68719;DHT22;55696;52.138;5.444;2022-12-07T14:11:13;10.30;66.70
68719;DHT22;55696;52.138;5.444;2022-12-07T14:14:02;10.30;68.30
68719;DHT22;55696;52.138;5.444;2022-12-07T14:16:34;10.40;69.00
68719;DHT22;55696;52.138;5.444;2022-12-07T14:19:04;10.50;68.30
68719;DHT22;55696;52.138;5.444;2022-12-07T14:21:33;10.60;68.00
68719;DHT22;55696;52.138;5.444;2022-12-07T14:24:18;10.60;67.60
68719;DHT22;55696;52.138;5.444;2022-12-07T14:26:46;10.70;67.90
68719;DHT22;55696;52.138;5.444;2022-12-07T14:29:29;10.60;67.00
68719;DHT22;55696;52.138;5.444;2022-12-07T14:31:58;10.60;67.50
68719;DHT22;55696;52.138;5.444;2022-12-07T14:34:31;10.60;67.20
68719;DHT22;55696;52.138;5.444;2022-12-07T14:36:57;10.60;66.10
68719;DHT22;55696;52.138;5.444;2022-12-07T14:39:24;10.50;65.90
68719;DHT22;55696;52.138;5.444;2022-12-07T14:41:51;10.50;66.00
68719;DHT22;55696;52.138;5.444;2022-12-07T14:44:22;10.50;66.10
68719;DHT22;55696;52.138;5.444;2022-12-07T14:46:57;10.50;67.90
68719;DHT22;55696;52.138;5.444;2022-12-07T14:49:44;10.80;66.60
68719;DHT22;55696;52.138;5.444;2022-12-07T14:52:16;10.50;66.30
68719;DHT22;55696;52.138;5.444;2022-12-07T14:55:03;10.40;68.30
68719;DHT22;55696;52.138;5.444;2022-12-07T14:57:31;10.50;66.90
68719;DHT22;55696;52.138;5.444;2022-12-07T14:59:57;10.30;66.70
68719;DHT22;55696;52.138;5.444;2022-12-07T15:02:24;10.20;67.00
68719;DHT22;55696;52.138;5.444;2022-12-07T15:04:51;10.30;67.40
68719;DHT22;55696;52.138;5.444;2022-12-07T15:07:21;10.10;67.20
68719;DHT22;55696;52.138;5.444;2022-12-07T15:09:49;10.20;69.10
68719;DHT22;55696;52.138;5.444;2022-12-07T15:12:15;10.20;67.20
68719;DHT22;55696;52.138;5.444;2022-12-07T15:14:42;10.60;67.30
68719;DHT22;55696;52.138;5.444;2022-12-07T15:17:12;10.10;67.20
68719;DHT22;55696;52.138;5.444;2022-12-07T15:19:53;10.00;68.90
68719;DHT22;55696;52.138;5.444;2022-12-07T15:22:20;10.10;67.00
68719;DHT22;55696;52.138;5.444;2022-12-07T15:24:47;9.90;67.20
68719;DHT22;55696;52.138;5.444;2022-12-07T15:27:14;9.90;67.40
68719;DHT22;55696;52.138;5.444;2022-12-07T15:29:40;9.80;67.50
68719;DHT22;55696;52.138;5.444;2022-12-07T15:32:08;9.90;67.80
68719;DHT22;55696;52.138;5.444;2022-12-07T15:34:35;9.80;67.90
68719;DHT22;55696;52.138;5.444;2022-12-07T15:37:07;9.80;68.00
68719;DHT22;55696;52.138;5.444;2022-12-07T15:39:35;9.80;68.70
68719;DHT22;55696;52.138;5.444;2022-12-07T15:42:02;9.60;68.50
68719;DHT22;55696;52.138;5.444;2022-12-07T15:44:29;9.70;68.80
68719;DHT22;55696;52.138;5.444;2022-12-07T15:47:14;9.70;68.30
68719;DHT22;55696;52.138;5.444;2022-12-07T15:49:41;9.60;68.80
68719;DHT22;55696;52.138;5.444;2022-12-07T15:52:08;9.60;68.90
68719;DHT22;55696;52.138;5.444;2022-12-07T15:54:35;9.60;68.70
68719;DHT22;55696;52.138;5.444;2022-12-07T15:57:02;9.60;69.30
68719;DHT22;55696;52.138;5.444;2022-12-07T15:59:29;9.60;69.30
68719;DHT22;55696;52.138;5.444;2022-12-07T16:01:56;9.60;69.60
68719;DHT22;55696;52.138;5.444;2022-12-07T16:04:24;9.50;69.50
68719;DHT22;55696;52.138;5.444;2022-12-07T16:06:50;9.60;69.40
68719;DHT22;55696;52.138;5.444;2022-12-07T16:09:18;9.60;69.10
68719;DHT22;55696;52.138;5.444;2022-12-07T16:11:45;9.60;69.70
68719;DHT22;55696;52.138;5.444;2022-12-07T16:14:12;9.60;69.50
68719;DHT22;55696;52.138;5.444;2022-12-07T16:16:39;9.50;69.40
68719;DHT22;55696;52.138;5.444;2022-12-07T16:19:07;9.40;69.80
68719;DHT22;55696;52.138;5.444;2022-12-07T16:21:35;9.40;70.30
68719;DHT22;55696;52.138;5.444;2022-12-07T16:24:03;9.50;70.70
68719;DHT22;55696;52.138;5.444;2022-12-07T16:26:29;9.40;70.60
68719;DHT22;55696;52.138;5.444;2022-12-07T16:28:57;9.40;69.90
68719;DHT22;55696;52.138;5.444;2022-12-07T16:31:26;9.40;69.80
68719;DHT22;55696;52.138;5.444;2022-12-07T16:33:54;9.50;71.00
68719;DHT22;55696;52.138;5.444;2022-12-07T16:36:23;9.40;70.60
68719;DHT22;55696;52.138;5.444;2022-12-07T16:39:11;9.40;70.30
68719;DHT22;55696;52.138;5.444;2022-12-07T16:41:38;9.40;69.90
68719;DHT22;55696;52.138;5.444;2022-12-07T16:44:07;9.30;69.70
68719;DHT22;55696;52.138;5.444;2022-12-07T16:46:34;9.30;70.90
68719;DHT22;55696;52.138;5.444;2022-12-07T16:49:03;9.30;70.60
68719;DHT22;55696;52.138;5.444;2022-12-07T16:51:30;9.30;70.40
68719;DHT22;55696;52.138;5.444;2022-12-07T16:53:57;9.30;70.40
68719;DHT22;55696;52.138;5.444;2022-12-07T16:56:24;9.30;70.10
68719;DHT22;55696;52.138;5.444;2022-12-07T16:58:53;9.30;70.10
68719;DHT22;55696;52.138;5.444;2022-12-07T17:01:20;9.30;70.20
68719;DHT22;55696;52.138;5.444;2022-12-07T17:03:49;9.30;71.50
68719;DHT22;55696;52.138;5.444;2022-12-07T17:06:22;9.30;70.60
68719;DHT22;55696;52.138;5.444;2022-12-07T17:08:50;9.20;72.40
68719;DHT22;55696;52.138;5.444;2022-12-07T17:11:26;9.30;71.40
68719;DHT22;55696;52.138;5.444;2022-12-07T17:13:53;9.20;72.20
68719;DHT22;55696;52.138;5.444;2022-12-07T17:16:38;9.20;70.60
68719;DHT22;55696;52.138;5.444;2022-12-07T17:19:07;9.10;71.10
68719;DHT22;55696;52.138;5.444;2022-12-07T17:21:34;9.00;71.90
68719;DHT22;55696;52.138;5.444;2022-12-07T17:24:03;9.10;71.20
68719;DHT22;55696;52.138;5.444;2022-12-07T17:26:30;9.10;71.80
68719;DHT22;55696;52.138;5.444;2022-12-07T17:29:02;9.20;70.90
68719;DHT22;55696;52.138;5.444;2022-12-07T17:31:29;9.10;71.00
68719;DHT22;55696;52.138;5.444;2022-12-07T17:33:56;9.00;70.30
68719;DHT22;55696;52.138;5.444;2022-12-07T17:36:25;9.10;70.70
68719;DHT22;55696;52.138;5.444;2022-12-07T17:38:52;9.10;71.80
68719;DHT22;55696;52.138;5.444;2022-12-07T17:41:23;9.10;70.30
68719;DHT22;55696;52.138;5.444;2022-12-07T17:44:10;9.80;72.00
68719;DHT22;55696;52.138;5.444;2022-12-07T17:46:38;9.30;71.40